Time;durP1;ratioP1;P1;durP2;ratioP2;P2;SDS_P1;SDS_P2;PMS_P1;PMS_P2;Temp;Humidity;BMP_temperature;BMP_pressure;BME280_temperature;BME280_humidity;BME280_pressure;Samples;Min_cycle;Max_cycle;Signal;HPM_P1;HPM_P2
2022/05/19 00:00:16;;;;;;;9.73;5.68;;;19.10;99.90;;;;;;4973099;28;20487;-36
2022/05/19 00:02:42;;;;;;;6.03;3.37;;;19.10;99.90;;;;;;4973741;28;20039;-38
2022/05/19 00:05:08;;;;;;;8.07;5.18;;;19.10;99.90;;;;;;4972361;28;20286;-37
2022/05/19 00:07:33;;;;;;;9.90;4.57;;;19.10;99.90;;;;;;4972229;28;20027;-30
2022/05/19 00:09:59;;;;;;;6.68;4.75;;;19.10;99.90;;;;;;4974925;28;20026;-29
2022/05/19 00:12:25;;;;;;;12.73;6.53;;;19.00;99.90;;;;;;4977476;28;20410;-29
2022/05/19 00:14:54;;;;;;;9.43;4.95;;;19.00;99.90;;;;;;4976681;28;20026;-30
2022/05/19 00:17:19;;;;;;;13.55;5.68;;;19.00;99.90;;;;;;4969928;28;20502;-30
2022/05/19 00:19:45;;;;;;;7.95;4.97;;;19.00;99.90;;;;;;4974838;28;20024;-30
2022/05/19 00:22:12;;;;;;;12.20;5.50;;;19.00;99.90;;;;;;4975014;28;20023;-33
2022/05/19 00:24:37;;;;;;;9.38;5.63;;;19.00;99.90;;;;;;4974690;28;20047;-33
2022/05/19 00:27:16;;;;;;;9.68;5.10;;;19.00;99.90;;;;;;4972464;28;20554;-33
2022/05/19 00:29:41;;;;;;;11.20;5.47;;;19.00;99.90;;;;;;4971810;28;20495;-33
2022/05/19 00:32:07;;;;;;;10.30;5.78;;;19.00;99.90;;;;;;4975114;28;20054;-31
2022/05/19 00:34:33;;;;;;;14.98;6.28;;;19.00;99.90;;;;;;4972809;28;20031;-35
2022/05/19 00:37:01;;;;;;;9.50;5.72;;;19.10;99.90;;;;;;4975818;28;20450;-29
2022/05/19 00:39:30;;;;;;;11.30;6.03;;;19.10;99.90;;;;;;4976359;28;20023;-34
2022/05/19 00:44:41;;;;;;;9.05;6.38;;;19.30;99.90;;;;;;4975403;28;20101;-31
2022/05/19 00:47:19;;;;;;;10.27;6.83;;;19.40;99.90;;;;;;4973884;28;20105;-36
2022/05/19 00:49:45;;;;;;;19.52;6.68;;;19.50;99.90;;;;;;4975468;28;20103;-32
2022/05/19 00:52:27;;;;;;;8.88;6.50;;;19.40;99.90;;;;;;4973035;28;20037;-31
2022/05/19 00:55:05;;;;;;;9.57;6.72;;;19.50;99.90;;;;;;4962186;28;20033;-32
2022/05/19 00:57:35;;;;;;;13.32;6.43;;;19.50;99.90;;;;;;4976265;28;20073;-31
2022/05/19 01:00:08;;;;;;;14.05;6.55;;;19.50;99.90;;;;;;4976123;28;20491;-32
2022/05/19 01:02:41;;;;;;;13.32;6.68;;;19.60;99.90;;;;;;4970660;28;20114;-32
2022/05/19 01:05:13;;;;;;;8.20;6.15;;;19.60;99.90;;;;;;4971876;28;20351;-43
2022/05/19 01:07:46;;;;;;;16.17;6.97;;;19.60;99.90;;;;;;4971172;28;20483;-37
2022/05/19 01:10:12;;;;;;;14.02;7.10;;;19.60;99.90;;;;;;4969503;28;20475;-35
2022/05/19 01:12:38;;;;;;;11.30;7.00;;;19.50;99.90;;;;;;4972534;28;20057;-31
2022/05/19 01:15:04;;;;;;;12.63;6.97;;;19.50;99.90;;;;;;4975969;28;20023;-30
2022/05/19 01:17:32;;;;;;;10.73;6.05;;;19.50;99.90;;;;;;4973878;28;20053;-32
2022/05/19 01:20:10;;;;;;;;;;;19.50;99.90;;;;;;4963075;28;20507;-33
2022/05/19 01:22:44;;;;;;;13.68;5.97;;;19.50;99.90;;;;;;4971788;28;19920;-29
2022/05/19 01:25:22;;;;;;;15.15;6.78;;;19.50;99.90;;;;;;4974621;28;20046;-31
2022/05/19 01:27:48;;;;;;;10.00;5.93;;;19.40;99.90;;;;;;4970961;28;20474;-31
2022/05/19 01:30:14;;;;;;;12.75;6.72;;;19.30;99.90;;;;;;4960666;28;20055;-40
2022/05/19 01:32:39;;;;;;;17.55;7.85;;;19.30;99.90;;;;;;4971876;28;20062;-36
2022/05/19 01:35:06;;;;;;;12.15;6.60;;;19.30;99.90;;;;;;4969027;28;20463;-65
2022/05/19 01:37:32;;;;;;;12.43;6.30;;;19.30;99.90;;;;;;4975614;28;20031;-60
2022/05/19 01:40:21;;;;;;;11.35;6.82;;;19.30;99.90;;;;;;4975072;28;20030;-37
2022/05/19 01:42:57;;;;;;;13.23;7.05;;;19.30;99.90;;;;;;4960874;28;20031;-38
2022/05/19 01:45:47;;;;;;;14.10;6.85;;;19.30;99.90;;;;;;4971285;28;20486;-38
2022/05/19 01:48:22;;;;;;;15.25;7.85;;;19.30;99.90;;;;;;4975115;28;20337;-33
2022/05/19 01:50:56;;;;;;;13.43;7.75;;;19.30;99.90;;;;;;4971897;28;20479;-36
2022/05/19 01:53:28;;;;;;;13.40;7.32;;;19.40;99.90;;;;;;4975349;28;20045;-38
2022/05/19 01:56:02;;;;;;;13.65;7.03;;;19.40;99.90;;;;;;4975309;28;20042;-36
2022/05/19 01:58:33;;;;;;;9.70;7.50;;;19.50;99.90;;;;;;4973395;28;20482;-36
2022/05/19 02:01:04;;;;;;;14.27;7.75;;;19.50;99.90;;;;;;4971844;28;20046;-36
2022/05/19 02:04:07;;;;;;;10.23;6.95;;;19.60;99.90;;;;;;4969790;28;20106;-36
2022/05/19 02:06:39;;;;;;;14.00;7.28;;;19.60;99.90;;;;;;4973117;28;20030;-38
2022/05/19 02:09:18;;;;;;;13.55;6.93;;;19.70;99.90;;;;;;4973661;28;20486;-37
2022/05/19 02:11:48;;;;;;;11.82;7.50;;;19.70;99.90;;;;;;4973555;28;20102;-37
2022/05/19 02:14:19;;;;;;;13.93;7.65;;;19.70;99.90;;;;;;4975497;28;20023;-29
2022/05/19 02:16:45;;;;;;;11.30;7.72;;;19.80;99.90;;;;;;4975631;28;20479;-33
2022/05/19 02:19:15;;;;;;;17.10;8.20;;;19.70;99.90;;;;;;4973739;28;20102;-34
2022/05/19 02:21:41;;;;;;;17.02;7.75;;;19.70;99.90;;;;;;4973030;28;20113;-32
2022/05/19 02:24:09;;;;;;;10.55;6.75;;;19.70;99.90;;;;;;4975472;28;20121;-28
2022/05/19 02:26:39;;;;;;;12.25;7.80;;;19.70;99.90;;;;;;4973998;28;20093;-30
2022/05/19 02:29:09;;;;;;;9.38;7.40;;;19.80;99.90;;;;;;4966510;28;20502;-32
2022/05/19 02:31:35;;;;;;;16.05;8.40;;;19.80;99.90;;;;;;4973520;28;20037;-38
2022/05/19 02:34:01;;;;;;;13.63;7.30;;;19.80;99.90;;;;;;4963672;28;20502;-39
2022/05/19 02:36:27;;;;;;;10.80;8.15;;;19.80;99.90;;;;;;4966696;28;20034;-37
2022/05/19 02:38:53;;;;;;;13.07;8.75;;;19.80;99.90;;;;;;4971178;28;20030;-39
2022/05/19 02:41:19;;;;;;;17.33;8.30;;;19.80;99.90;;;;;;4974331;28;20505;-38
2022/05/19 02:43:45;;;;;;;20.90;8.55;;;19.80;99.90;;;;;;4972882;28;20035;-38
2022/05/19 02:46:10;;;;;;;17.33;10.05;;;19.80;99.90;;;;;;4972744;28;20406;-36
2022/05/19 02:48:36;;;;;;;12.40;9.40;;;19.80;99.90;;;;;;4966669;28;20455;-39
2022/05/19 02:51:03;;;;;;;17.25;10.00;;;19.90;99.90;;;;;;4974463;28;20066;-38
2022/05/19 02:53:29;;;;;;;24.60;11.80;;;19.90;99.90;;;;;;4974853;28;20026;-39
2022/05/19 02:55:55;;;;;;;19.83;11.43;;;19.90;99.90;;;;;;4972555;28;20046;-39
2022/05/19 02:58:20;;;;;;;33.15;13.07;;;20.00;99.90;;;;;;4967425;28;20035;-40
2022/05/19 03:00:48;;;;;;;25.70;13.50;;;20.00;99.90;;;;;;4973615;28;20038;-38
2022/05/19 03:03:13;;;;;;;26.77;13.25;;;19.90;99.90;;;;;;4970916;28;20033;-39
2022/05/19 03:05:40;;;;;;;23.17;11.40;;;19.70;99.90;;;;;;4972615;28;20572;-39
2022/05/19 03:08:07;;;;;;;18.10;7.30;;;19.40;99.90;;;;;;4968597;28;20041;-38
2022/05/19 03:10:33;;;;;;;11.15;4.95;;;19.00;99.90;;;;;;4968420;28;20487;-36
2022/05/19 03:12:59;;;;;;;20.48;4.53;;;18.60;99.90;;;;;;4974575;28;20122;-37
2022/05/19 03:15:25;;;;;;;9.43;4.18;;;18.30;99.90;;;;;;4973102;28;20121;-33
2022/05/19 03:17:51;;;;;;;5.85;3.38;;;18.10;99.90;;;;;;4970848;28;20371;-37
2022/05/19 03:20:17;;;;;;;4.22;1.80;;;17.90;99.90;;;;;;4955223;29;20031;-37
2022/05/19 03:22:43;;;;;;;1.80;1.30;;;17.80;99.90;;;;;;4955345;29;20089;-38
2022/05/19 03:25:10;;;;;;;3.83;1.58;;;17.60;99.90;;;;;;4965968;28;20090;-37
2022/05/19 03:27:37;;;;;;;3.33;1.70;;;17.50;99.90;;;;;;4972693;28;20045;-36
2022/05/19 03:30:06;;;;;;;2.70;1.25;;;17.50;99.90;;;;;;4955079;28;20159;-37
2022/05/19 03:32:32;;;;;;;2.55;1.10;;;17.40;99.90;;;;;;4955302;28;20383;-38
2022/05/19 03:34:57;;;;;;;3.78;1.70;;;17.30;99.90;;;;;;4968241;28;20027;-36
2022/05/19 03:37:23;;;;;;;1.83;1.13;;;17.30;99.90;;;;;;4972251;28;20043;-36
2022/05/19 03:39:48;;;;;;;6.05;1.60;;;17.20;99.90;;;;;;4974298;28;20081;-37
2022/05/19 03:42:14;;;;;;;2.55;1.13;;;17.10;99.90;;;;;;4975061;28;20031;-37
2022/05/19 03:44:40;;;;;;;1.70;1.27;;;17.10;99.90;;;;;;4978174;28;20031;-38
2022/05/19 03:47:06;;;;;;;1.40;1.20;;;17.10;99.90;;;;;;4975931;28;20038;-38
2022/05/19 03:49:32;;;;;;;2.63;1.27;;;17.10;99.90;;;;;;4976871;28;20069;-39
2022/05/19 03:51:58;;;;;;;2.80;1.33;;;17.10;99.90;;;;;;4977536;28;20474;-39
2022/05/19 03:54:24;;;;;;;1.90;0.88;;;17.10;99.90;;;;;;4977968;28;20506;-39
2022/05/19 03:56:50;;;;;;;1.95;0.98;;;17.10;99.90;;;;;;4973922;28;20026;-40
2022/05/19 03:59:16;;;;;;;1.55;1.45;;;17.10;99.90;;;;;;4977119;28;20035;-39
2022/05/19 04:01:42;;;;;;;1.52;1.35;;;17.10;99.90;;;;;;4977892;28;20090;-39
2022/05/19 04:04:08;;;;;;;3.03;1.48;;;17.10;99.90;;;;;;4972780;28;20498;-38
2022/05/19 04:06:34;;;;;;;4.05;1.70;;;17.10;99.90;;;;;;4975944;28;20026;-39
2022/05/19 04:09:01;;;;;;;5.65;1.73;;;17.10;99.90;;;;;;4976659;28;20078;-37
2022/05/19 04:11:27;;;;;;;2.73;1.47;;;17.10;99.90;;;;;;4976648;28;20047;-37
2022/05/19 04:13:53;;;;;;;5.93;2.13;;;17.10;99.90;;;;;;4975962;28;20289;-38
2022/05/19 04:16:19;;;;;;;4.93;1.88;;;17.10;99.90;;;;;;4975959;28;20049;-45
2022/05/19 04:18:44;;;;;;;3.28;2.15;;;17.00;99.90;;;;;;4977113;28;20031;-37
2022/05/19 04:21:10;;;;;;;3.63;1.90;;;17.00;99.90;;;;;;4977308;28;20034;-39
2022/05/19 04:23:36;;;;;;;1.75;1.48;;;17.10;99.90;;;;;;4976813;28;20112;-39
2022/05/19 04:26:01;;;;;;;3.53;2.00;;;17.10;99.90;;;;;;4962703;28;20031;-42
2022/05/19 04:28:27;;;;;;;1.58;1.48;;;17.10;99.90;;;;;;4971259;28;20122;-38
2022/05/19 04:30:53;;;;;;;3.10;1.60;;;17.10;99.90;;;;;;4976955;28;20034;-38
2022/05/19 04:33:19;;;;;;;4.28;2.00;;;17.10;99.90;;;;;;4975504;28;20474;-39
2022/05/19 04:35:45;;;;;;;5.30;1.92;;;17.10;99.90;;;;;;4974113;28;20031;-37
2022/05/19 04:38:17;;;;;;;3.67;2.10;;;17.10;99.90;;;;;;4976538;28;20109;-39
2022/05/19 04:40:47;;;;;;;4.05;2.08;;;17.10;99.90;;;;;;4977215;28;20050;-38
2022/05/19 04:43:19;;;;;;;7.07;2.25;;;17.20;99.90;;;;;;4976461;28;20060;-39
2022/05/19 04:45:47;;;;;;;5.65;3.80;;;17.10;99.90;;;;;;4966158;28;20035;-38
2022/05/19 04:48:12;;;;;;;2.60;2.22;;;17.10;99.90;;;;;;4957680;29;20471;-38
2022/05/19 04:50:38;;;;;;;4.93;2.22;;;17.10;99.90;;;;;;4975477;28;20026;-38
2022/05/19 04:53:03;;;;;;;2.53;2.30;;;17.20;99.90;;;;;;4976899;28;20029;-38
2022/05/19 04:55:29;;;;;;;2.13;1.80;;;17.20;99.90;;;;;;4966770;28;20484;-39
2022/05/19 04:57:55;;;;;;;3.03;1.90;;;17.20;99.90;;;;;;4967849;28;20031;-37
2022/05/19 05:00:21;;;;;;;3.33;2.10;;;17.20;99.90;;;;;;4975836;28;20031;-39
2022/05/19 05:02:47;;;;;;;3.60;2.45;;;17.30;99.90;;;;;;4975471;28;20030;-37
2022/05/19 05:05:13;;;;;;;4.20;2.25;;;17.30;99.90;;;;;;4976595;28;20037;-38
2022/05/19 05:07:39;;;;;;;5.28;1.98;;;17.30;99.90;;;;;;4976871;28;20526;-39
2022/05/19 05:10:05;;;;;;;4.60;2.08;;;17.40;99.90;;;;;;4973795;28;20154;-31
2022/05/19 05:12:30;;;;;;;2.63;2.42;;;17.40;99.90;;;;;;4975842;28;20055;-32
2022/05/19 05:14:56;;;;;;;2.60;2.33;;;17.50;99.90;;;;;;4959019;28;20023;-29
2022/05/19 05:17:22;;;;;;;4.72;2.38;;;17.50;99.90;;;;;;4971405;28;20078;-31
2022/05/19 05:19:48;;;;;;;4.47;2.90;;;17.50;99.90;;;;;;4976333;28;20479;-38
2022/05/19 05:22:14;;;;;;;3.55;2.75;;;17.40;99.90;;;;;;4974550;28;20026;-41
2022/05/19 05:24:40;;;;;;;3.55;2.22;;;17.40;99.90;;;;;;4971211;28;20038;-28
2022/05/19 05:27:06;;;;;;;3.47;3.17;;;17.40;99.90;;;;;;4975286;28;20086;-32
2022/05/19 05:29:33;;;;;;;4.30;2.78;;;17.40;99.90;;;;;;4976256;28;20033;-27
2022/05/19 05:31:58;;;;;;;4.30;3.47;;;17.40;99.90;;;;;;4976490;28;20483;-30
2022/05/19 05:34:24;;;;;;;8.32;3.20;;;17.40;99.90;;;;;;4959283;28;20031;-30
2022/05/19 05:36:50;;;;;;;4.00;2.90;;;17.40;99.90;;;;;;4966646;28;20027;-30
2022/05/19 05:39:16;;;;;;;4.57;2.65;;;17.50;99.90;;;;;;4975310;28;20073;-30
2022/05/19 05:41:42;;;;;;;2.42;2.22;;;17.60;99.90;;;;;;4976044;28;20031;-32
2022/05/19 05:44:08;;;;;;;5.72;2.85;;;17.60;99.90;;;;;;4972769;28;20029;-28
2022/05/19 05:46:33;;;;;;;4.32;3.13;;;17.60;99.90;;;;;;4974673;28;20031;-33
2022/05/19 05:48:59;;;;;;;6.57;3.03;;;17.60;99.90;;;;;;4975884;28;20042;-30
2022/05/19 05:51:25;;;;;;;7.07;3.42;;;17.70;99.90;;;;;;4973304;28;20082;-32
2022/05/19 05:53:50;;;;;;;19.60;3.85;;;17.70;99.90;;;;;;4963252;28;20037;-29
2022/05/19 05:56:18;;;;;;;5.72;3.25;;;17.70;99.90;;;;;;4961163;28;20026;-35
2022/05/19 05:58:44;;;;;;;9.18;3.30;;;17.80;99.90;;;;;;4975917;28;20437;-28
2022/05/19 06:01:12;;;;;;;5.70;3.55;;;17.80;99.90;;;;;;4975845;28;20455;-29
2022/05/19 06:03:39;;;;;;;9.38;3.53;;;17.90;99.90;;;;;;4972052;28;20030;-32
2022/05/19 06:06:05;;;;;;;6.63;3.10;;;17.90;99.90;;;;;;4972003;28;20087;-31
2022/05/19 06:08:31;;;;;;;7.25;3.33;;;18.00;99.90;;;;;;4971586;28;20031;-32
2022/05/19 06:10:59;;;;;;;4.20;3.05;;;18.10;99.90;;;;;;4971875;28;20058;-35
2022/05/19 06:13:28;;;;;;;4.32;2.85;;;18.10;99.90;;;;;;4974477;28;20478;-32
2022/05/19 06:15:54;;;;;;;5.72;3.05;;;18.10;99.90;;;;;;4973642;28;20463;-30
2022/05/19 06:18:20;;;;;;;7.07;2.70;;;18.10;99.90;;;;;;4975359;28;20027;-34
2022/05/19 06:20:46;;;;;;;4.72;2.60;;;18.10;99.90;;;;;;4972520;28;20491;-31
2022/05/19 06:23:12;;;;;;;3.85;2.67;;;18.20;99.90;;;;;;4973868;28;20034;-29
2022/05/19 06:25:38;;;;;;;6.18;3.15;;;18.20;99.90;;;;;;4971841;28;20038;-31
2022/05/19 06:28:04;;;;;;;4.05;3.03;;;18.20;99.90;;;;;;4973088;28;20035;-31
2022/05/19 06:30:31;;;;;;;5.82;2.72;;;18.30;99.90;;;;;;4967048;28;20032;-34
2022/05/19 06:32:57;;;;;;;4.35;3.00;;;18.30;99.90;;;;;;4955789;28;20476;-34
2022/05/19 06:35:27;;;;;;;6.28;2.97;;;18.30;99.90;;;;;;4964643;28;20491;-29
2022/05/19 06:37:53;;;;;;;5.88;2.85;;;18.20;99.90;;;;;;4974602;28;20031;-29
2022/05/19 06:40:19;;;;;;;7.53;3.10;;;18.20;99.90;;;;;;4965407;28;20037;-33
2022/05/19 06:42:46;;;;;;;6.82;3.00;;;18.30;99.90;;;;;;4958212;28;20027;-32
2022/05/19 06:45:17;;;;;;;3.25;2.53;;;18.30;99.90;;;;;;4974064;28;20372;-34
2022/05/19 06:47:43;;;;;;;3.30;2.90;;;18.30;99.90;;;;;;4975048;28;20558;-35
2022/05/19 06:50:10;;;;;;;4.00;2.65;;;18.40;99.90;;;;;;4973825;28;20027;-32
2022/05/19 06:52:43;;;;;;;6.93;2.67;;;18.50;99.90;;;;;;4956240;28;20035;-35
2022/05/19 06:55:10;;;;;;;8.90;3.05;;;18.50;99.90;;;;;;4966264;28;20046;-29
2022/05/19 06:57:36;;;;;;;5.97;2.92;;;18.60;99.90;;;;;;4973239;28;20031;-30
2022/05/19 07:00:04;;;;;;;5.22;2.95;;;18.60;99.90;;;;;;4974093;28;20031;-28
2022/05/19 07:02:30;;;;;;;3.97;2.70;;;18.70;99.90;;;;;;4974570;28;20054;-30
2022/05/19 07:04:55;;;;;;;4.10;3.08;;;18.70;99.90;;;;;;4965100;28;20517;-34
2022/05/19 07:07:21;;;;;;;7.35;3.38;;;18.80;99.90;;;;;;4955499;28;20031;-32
2022/05/19 07:09:47;;;;;;;5.78;2.90;;;18.90;99.90;;;;;;4960202;28;20050;-29
2022/05/19 07:12:20;;;;;;;3.22;2.65;;;18.90;99.90;;;;;;4970708;28;20047;-35
2022/05/19 07:14:45;;;;;;;4.95;3.20;;;19.00;99.90;;;;;;4973870;28;20023;-35
2022/05/19 07:17:12;;;;;;;4.97;3.15;;;19.10;99.90;;;;;;4973409;28;20073;-34
2022/05/19 07:22:23;;;;;;;4.22;3.10;;;19.20;99.90;;;;;;4961853;28;20518;-33
2022/05/19 07:24:49;;;;;;;6.13;3.67;;;19.30;99.90;;;;;;4969853;28;20471;-29
2022/05/19 07:27:15;;;;;;;7.80;3.40;;;19.40;99.90;;;;;;4973500;28;20062;-32
2022/05/19 07:29:41;;;;;;;4.43;3.17;;;19.40;99.90;;;;;;4974399;28;20434;-47
2022/05/19 07:32:08;;;;;;;4.80;3.15;;;19.50;99.90;;;;;;4971085;28;20027;-36
2022/05/19 07:34:36;;;;;;;8.70;3.17;;;19.50;99.90;;;;;;4971441;28;20035;-36
2022/05/19 07:37:03;;;;;;;2.90;2.63;;;19.50;99.90;;;;;;4973617;28;20746;-35
2022/05/19 07:39:29;;;;;;;4.40;2.73;;;19.60;99.90;;;;;;4973285;28;20031;-36
2022/05/19 07:41:55;;;;;;;3.85;2.50;;;19.60;99.90;;;;;;4963315;28;20289;-37
2022/05/19 07:44:22;;;;;;;7.07;2.80;;;19.60;99.90;;;;;;4962319;28;20030;-38
2022/05/19 07:46:48;;;;;;;2.90;2.55;;;19.70;99.90;;;;;;4972658;28;20038;-38
2022/05/19 07:49:14;;;;;;;5.47;2.83;;;19.70;99.90;;;;;;4973634;28;20493;-39
2022/05/19 07:51:42;;;;;;;6.40;3.10;;;19.70;99.90;;;;;;4974222;28;20098;-39
2022/05/19 07:54:12;;;;;;;;;;;19.80;99.90;;;;;;4973976;28;20451;-38
2022/05/19 07:56:39;;;;;;;4.68;2.63;;;19.80;99.90;;;;;;4969365;28;19914;-38
2022/05/19 07:59:04;;;;;;;8.07;3.03;;;19.90;99.90;;;;;;4971933;28;20074;-38
2022/05/19 08:01:33;;;;;;;4.95;2.60;;;19.90;99.90;;;;;;4966928;28;20030;-39
2022/05/19 08:03:59;;;;;;;3.13;2.72;;;19.90;99.90;;;;;;4968462;28;20033;-37
2022/05/19 08:06:28;;;;;;;4.35;3.13;;;20.00;99.90;;;;;;4973157;28;20049;-40
2022/05/19 08:08:54;;;;;;;4.13;2.97;;;20.10;99.90;;;;;;4972494;28;20031;-36
2022/05/19 08:11:21;;;;;;;7.75;2.90;;;20.30;99.90;;;;;;4973434;28;20046;-36
2022/05/19 08:16:30;;;;;;;9.27;3.33;;;20.60;99.90;;;;;;4974163;28;20038;-35
2022/05/19 08:18:56;;;;;;;5.28;3.42;;;20.70;99.90;;;;;;4969452;28;20034;-36
2022/05/19 08:21:22;;;;;;;4.72;3.03;;;20.80;99.90;;;;;;4966443;28;20029;-36
2022/05/19 08:23:52;;;;;;;4.38;2.88;;;21.00;99.90;;;;;;4968759;28;20074;-35
2022/05/19 08:26:19;;;;;;;3.40;2.28;;;21.00;99.90;;;;;;4968687;28;20031;-35
2022/05/19 08:28:47;;;;;;;3.47;2.65;;;21.10;99.90;;;;;;4968366;28;20109;-36
2022/05/19 08:31:22;;;;;;;4.18;2.35;;;21.10;99.90;;;;;;4975008;28;20372;-36
2022/05/19 08:33:53;;;;;;;4.20;2.53;;;21.20;99.90;;;;;;4970232;28;20034;-36
2022/05/19 08:36:18;;;;;;;9.63;2.78;;;21.20;99.90;;;;;;4970744;28;20045;-35
2022/05/19 08:38:44;;;;;;;3.08;2.47;;;21.20;99.90;;;;;;4977190;28;20059;-37
2022/05/19 08:41:42;;;;;;;4.05;2.50;;;21.20;99.90;;;;;;4977141;28;20050;-37
2022/05/19 08:44:16;;;;;;;2.50;1.85;;;21.10;99.90;;;;;;4971161;28;20030;-35
2022/05/19 08:46:45;;;;;;;3.15;2.20;;;20.90;99.90;;;;;;4973357;28;20033;-35
2022/05/19 08:49:27;;;;;;;4.18;2.70;;;20.90;99.90;;;;;;4972198;28;20027;-35
2022/05/19 08:52:03;;;;;;;3.92;3.08;;;20.70;99.90;;;;;;4973840;28;20023;-33
2022/05/19 08:54:28;;;;;;;7.30;3.05;;;20.60;99.90;;;;;;4974785;28;20027;-35
2022/05/19 08:57:03;;;;;;;8.25;3.15;;;20.50;99.90;;;;;;4976011;28;20482;-35
2022/05/19 09:00:06;;;;;;;2.20;2.03;;;20.40;99.90;;;;;;4969905;28;20031;-36
2022/05/19 09:02:46;;;;;;;4.97;2.70;;;20.30;99.90;;;;;;4976582;28;20027;-36
2022/05/19 09:05:24;;;;;;;4.55;2.67;;;20.30;99.90;;;;;;4975010;28;20541;-39
2022/05/19 09:08:17;;;;;;;4.22;2.88;;;20.30;99.90;;;;;;4976077;28;20033;-30
2022/05/19 09:10:52;;;;;;;3.63;3.00;;;20.30;99.90;;;;;;4975911;28;20122;-36
2022/05/19 09:13:40;;;;;;;6.90;3.50;;;20.20;99.90;;;;;;4975036;28;20042;-37
2022/05/19 09:16:16;;;;;;;3.40;3.10;;;20.20;99.90;;;;;;4965301;28;20059;-40
2022/05/19 09:18:47;;;;;;;6.00;3.80;;;20.50;99.90;;;;;;4968319;28;20034;-39
2022/05/19 09:21:13;;;;;;;4.72;4.00;;;20.90;99.90;;;;;;4976326;28;20043;-47
2022/05/19 09:23:42;;;;;;;6.22;3.88;;;21.30;99.90;;;;;;4973765;28;20023;-36
2022/05/19 09:26:55;;;;;;;4.30;3.90;;;21.90;99.90;;;;;;4970816;28;20042;-36
2022/05/19 09:29:28;;;;;;;4.95;3.42;;;22.70;99.90;;;;;;4968504;28;20034;-37
2022/05/19 09:32:02;;;;;;;5.20;3.65;;;23.30;99.90;;;;;;4973649;28;20059;-37
2022/05/19 09:34:29;;;;;;;6.88;3.47;;;23.90;99.90;;;;;;4972247;28;20024;-37
2022/05/19 09:37:03;;;;;;;3.33;3.00;;;23.80;99.90;;;;;;4968914;28;20015;-32
2022/05/19 09:39:35;;;;;;;4.70;2.92;;;23.50;99.90;;;;;;4974615;28;20478;-37
2022/05/19 09:42:10;;;;;;;7.82;3.55;;;23.20;99.90;;;;;;4968232;28;20019;-37
2022/05/19 09:44:42;;;;;;;5.25;3.25;;;23.20;99.90;;;;;;4973295;28;20471;-38
2022/05/19 09:47:31;;;;;;;3.75;3.00;;;23.30;99.90;;;;;;4972511;28;20082;-50
2022/05/19 09:50:02;;;;;;;4.18;3.05;;;23.50;99.90;;;;;;4969062;28;20067;-53
2022/05/19 09:52:29;;;;;;;4.38;3.05;;;23.60;99.90;;;;;;4963697;28;20538;-37
2022/05/19 09:55:00;;;;;;;3.75;2.65;;;23.70;99.90;;;;;;4971869;28;20493;-38
2022/05/19 09:57:43;;;;;;;3.35;2.70;;;23.70;99.90;;;;;;4973122;28;20498;-50
2022/05/19 10:00:18;;;;;;;2.80;2.60;;;23.60;99.90;;;;;;4965211;28;20059;-48
2022/05/19 10:02:49;;;;;;;4.32;2.42;;;23.80;99.90;;;;;;4956580;28;20483;-58
2022/05/19 10:05:25;;;;;;;2.95;2.40;;;24.20;99.90;;;;;;4974900;28;20027;-53
2022/05/19 10:07:58;;;;;;;2.53;2.20;;;24.70;99.90;;;;;;4968853;28;20035;-61
2022/05/19 10:10:27;;;;;;;2.38;2.17;;;25.40;99.90;;;;;;4980224;28;20566;-63
2022/05/19 10:12:58;;;;;;;6.20;2.28;;;25.80;99.90;;;;;;4975287;28;20526;-39
2022/05/19 10:15:30;;;;;;;2.80;2.55;;;26.30;99.90;;;;;;4975312;28;20478;-39
2022/05/19 10:18:15;;;;;;;6.13;3.10;;;26.40;99.90;;;;;;4974145;28;20027;-38
2022/05/19 10:21:00;;;;;;;5.43;2.78;;;26.30;99.90;;;;;;4975497;28;20541;-63
2022/05/19 10:23:58;;;;;;;4.45;3.25;;;26.30;99.90;;;;;;4975279;28;20041;-39
2022/05/19 10:31:02;;;;;;;6.13;3.45;;;26.40;99.90;;;;;;4971475;28;20497;-37
2022/05/19 10:33:21;;;;;;;4.40;3.30;;;26.40;99.90;;;;;;4975178;28;20460;-39
2022/05/19 10:36:19;;;;;;;4.28;3.80;;;26.20;99.90;;;;;;4972089;28;20486;-40
2022/05/19 10:39:12;;;;;;;4.38;3.15;;;26.30;99.90;;;;;;4970688;28;20026;-40
2022/05/19 10:41:51;;;;;;;6.25;3.97;;;26.30;99.90;;;;;;4974901;28;20044;-40
2022/05/19 10:44:28;;;;;;;4.88;4.38;;;25.80;99.90;;;;;;4973669;28;20045;-39
2022/05/19 10:46:59;;;;;;;;;;;25.30;99.90;;;;;;4966874;28;20097;-40
2022/05/19 10:49:53;;;;;;;5.45;4.20;;;24.80;99.90;;;;;;4971891;28;20420;-40
2022/05/19 10:52:44;;;;;;;6.50;3.42;;;24.40;99.90;;;;;;4974231;28;20073;-37
2022/05/19 10:55:16;;;;;;;7.32;4.93;;;23.90;99.90;;;;;;4966325;28;20027;-36
2022/05/19 10:57:44;;;;;;;9.50;4.82;;;23.60;99.90;;;;;;4965427;28;20027;-36
2022/05/19 11:01:01;;;;;;;5.30;4.43;;;23.40;99.90;;;;;;4971129;28;20414;-36
2022/05/19 11:03:43;;;;;;;;;;;23.10;99.90;;;;;;4914721;29;20584;-36
2022/05/19 11:06:49;;;;;;;7.55;4.43;;;23.00;99.90;;;;;;4968936;28;19925;-36
2022/05/19 11:09:34;;;;;;;6.25;4.78;;;22.80;99.90;;;;;;4918727;28;20512;-36
2022/05/19 11:12:34;;;;;;;7.35;5.72;;;22.70;99.90;;;;;;4970951;28;20069;-37
2022/05/19 11:15:09;;;;;;;7.25;4.47;;;22.70;99.90;;;;;;4939719;28;20536;-59
2022/05/19 11:18:09;;;;;;;5.93;5.30;;;22.60;99.90;;;;;;4974435;28;20034;-60
2022/05/19 11:20:44;;;;;;;8.35;5.28;;;22.50;99.90;;;;;;4973626;28;20038;-38
2022/05/19 11:23:28;;;;;;;11.43;6.13;;;22.40;99.90;;;;;;4971073;28;20042;-33
2022/05/19 11:26:23;;;;;;;9.75;6.07;;;22.30;99.90;;;;;;4969917;28;20497;-36
2022/05/19 11:29:12;;;;;;;8.45;5.90;;;22.20;99.90;;;;;;4969814;28;20037;-38
2022/05/19 11:31:49;;;;;;;7.55;6.35;;;22.20;99.90;;;;;;4968681;28;20435;-36
2022/05/19 11:34:57;;;;;;;21.60;9.32;;;22.20;99.90;;;;;;4970916;28;20118;-37
2022/05/19 11:37:43;;;;;;;17.23;9.13;;;21.90;99.90;;;;;;4971510;28;20581;-37
2022/05/19 11:40:28;;;;;;;19.35;7.47;;;21.00;99.90;;;;;;4966044;28;20034;-38
2022/05/19 11:43:00;;;;;;;5.40;3.28;;;20.40;99.90;;;;;;4970875;28;20042;-40
2022/05/19 11:45:32;;;;;;;8.45;3.53;;;19.40;99.90;;;;;;4974089;28;20045;-42
2022/05/19 11:57:17;;;;;;;10.68;7.13;;;18.00;99.90;;;;;;4954873;29;20075;-39
2022/05/19 11:59:52;;;;;;;15.63;8.70;;;18.10;99.90;;;;;;4969142;28;20038;-37
2022/05/19 12:02:26;;;;;;;18.48;10.43;;;18.10;99.90;;;;;;4974129;28;20505;-38
2022/05/19 12:05:06;;;;;;;22.52;11.02;;;18.20;99.90;;;;;;4975912;28;20027;-38
2022/05/19 12:07:43;;;;;;;22.83;12.35;;;18.20;99.90;;;;;;4973860;28;20024;-38
2022/05/19 12:10:10;;;;;;;;;;;18.20;99.90;;;;;;4958928;29;20110;-38
2022/05/19 12:12:43;;;;;;;24.25;14.32;;;18.20;99.90;;;;;;4963089;28;20369;-42
2022/05/19 12:15:34;;;;;;;35.47;16.00;;;18.20;99.90;;;;;;4977680;28;20027;-38
2022/05/19 12:18:30;;;;;;;40.85;18.05;;;18.20;99.90;;;;;;4977894;28;20509;-38
2022/05/19 12:21:02;;;;;;;39.63;17.08;;;18.20;99.90;;;;;;4975796;28;20442;-37
2022/05/19 12:23:40;;;;;;;30.00;18.13;;;18.20;99.90;;;;;;4965346;28;20132;-37
2022/05/19 12:26:23;;;;;;;34.00;17.67;;;18.20;99.90;;;;;;4958347;29;20066;-37
2022/05/19 12:29:04;;;;;;;34.42;17.95;;;18.20;99.90;;;;;;4958056;29;20034;-38
2022/05/19 12:31:59;;;;;;;35.13;18.40;;;18.20;99.90;;;;;;4967756;28;20046;-38
2022/05/19 12:34:32;;;;;;;31.98;17.33;;;18.30;99.90;;;;;;4969761;28;20034;-38
2022/05/19 12:37:33;;;;;;;23.27;16.48;;;18.30;99.90;;;;;;4965549;28;20034;-38
2022/05/19 12:40:26;;;;;;;25.15;16.27;;;18.40;99.90;;;;;;4977064;28;20030;-37
2022/05/19 12:43:21;;;;;;;24.13;14.35;;;18.40;99.90;;;;;;4972152;28;20127;-38
2022/05/19 12:45:53;;;;;;;28.15;16.17;;;18.40;99.90;;;;;;4968019;28;20031;-38
2022/05/19 12:48:43;;;;;;;29.88;15.88;;;18.40;99.90;;;;;;4976978;28;20510;-37
2022/05/19 12:51:15;;;;;;;29.15;16.45;;;18.40;99.90;;;;;;4974211;28;20062;-37
2022/05/19 12:53:50;;;;;;;25.60;15.80;;;18.40;99.90;;;;;;4957682;29;20406;-39
2022/05/19 12:57:20;;;;;;;25.90;15.10;;;18.50;99.90;;;;;;4957577;29;20070;-37
2022/05/19 13:00:24;;;;;;;28.10;15.80;;;18.50;99.90;;;;;;4915662;29;20044;-35
2022/05/19 13:03:05;;;;;;;27.55;14.63;;;18.60;99.90;;;;;;4962247;28;20097;-37
2022/05/19 13:05:54;;;;;;;26.60;15.35;;;18.60;99.90;;;;;;4957543;29;20582;-37
2022/05/19 13:08:34;;;;;;;28.73;14.13;;;18.60;99.90;;;;;;4957424;29;20475;-36
2022/05/19 13:11:04;;;;;;;20.65;14.88;;;18.60;99.90;;;;;;4957868;28;20570;-38
2022/05/19 13:13:36;;;;;;;24.80;14.05;;;18.50;99.90;;;;;;4957669;29;20039;-40
2022/05/19 13:16:12;;;;;;;27.52;14.00;;;18.50;99.90;;;;;;4956964;28;20521;-38
2022/05/19 13:18:42;;;;;;;18.65;13.20;;;18.60;99.90;;;;;;4957285;29;20431;-38
2022/05/19 13:21:11;;;;;;;17.95;13.23;;;18.70;99.90;;;;;;4956898;28;20027;-38
2022/05/19 13:23:40;;;;;;;19.10;12.13;;;18.70;99.90;;;;;;4965850;28;20034;-38
2022/05/19 13:26:25;;;;;;;18.83;11.85;;;18.80;99.90;;;;;;4969729;28;20023;-37
2022/05/19 13:32:01;;;;;;;18.77;11.18;;;19.10;99.90;;;;;;4975274;28;20393;-33